Time;durP1;ratioP1;P1;durP2;ratioP2;P2;SDS_P1;SDS_P2;PMS_P1;PMS_P2;Temp;Humidity;BMP_temperature;BMP_pressure;BME280_temperature;BME280_humidity;BME280_pressure;Samples;Min_cycle;Max_cycle;Signal;HPM_P1;HPM_P2
2023/11/17 00:00:25;;;;;;;1999.90;999.90;;;;;;;;;;4892123;29;20057;-70
2023/11/17 00:02:51;;;;;;;1999.90;999.90;;;;;;;;;;4878364;29;20131;-71
2023/11/17 00:05:19;;;;;;;1999.90;999.90;;;;;;;;;;4878437;29;20021;-69
2023/11/17 00:07:45;;;;;;;1999.90;999.90;;;;;;;;;;4878254;29;20028;-69
2023/11/17 00:10:13;;;;;;;1999.90;999.90;;;;;;;;;;4879137;29;20025;-69
2023/11/17 00:12:41;;;;;;;1999.90;999.90;;;;;;;;;;4880163;29;20033;-74
2023/11/17 00:15:08;;;;;;;1999.90;999.90;;;;;;;;;;4879280;29;20069;-76
2023/11/17 00:17:35;;;;;;;1999.90;999.90;;;;;;;;;;4878912;29;20180;-68
2023/11/17 00:20:01;;;;;;;1999.90;999.90;;;;;;;;;;4878176;29;20033;-70
2023/11/17 00:22:27;;;;;;;1999.90;999.90;;;;;;;;;;4878076;29;20045;-69
2023/11/17 00:24:54;;;;;;;1999.90;999.90;;;;;;;;;;4877888;29;20040;-73
2023/11/17 00:27:20;;;;;;;1999.90;999.90;;;;;;;;;;4877541;29;20041;-67
2023/11/17 00:29:48;;;;;;;1999.90;999.90;;;;;;;;;;4877366;29;20052;-68
2023/11/17 00:32:14;;;;;;;1999.90;999.90;;;;;;;;;;4877811;29;20497;-70
2023/11/17 00:34:40;;;;;;;1999.90;999.90;;;;;;;;;;4877807;29;20033;-73
2023/11/17 00:37:07;;;;;;;1999.90;999.90;;;;;;;;;;4877866;29;20104;-69
2023/11/17 00:39:39;;;;;;;1999.90;999.90;;;;;;;;;;4877773;29;20063;-74
2023/11/17 00:42:07;;;;;;;;;;;;;;;;;;4878186;29;20123;-72
2023/11/17 00:44:33;;;;;;;1999.90;999.90;;;;;;;;;;4877758;29;19911;-71
2023/11/17 00:46:59;;;;;;;1999.90;999.90;;;;;;;;;;4877646;29;20032;-68
2023/11/17 00:49:26;;;;;;;1999.90;999.90;;;;;;;;;;4877624;29;20033;-68
2023/11/17 00:51:52;;;;;;;1999.90;999.90;;;;;;;;;;4877519;29;20033;-78
2023/11/17 00:54:25;;;;;;;1999.90;999.90;;;;;;;;;;4877845;29;20033;-68
2023/11/17 00:56:54;;;;;;;1999.90;999.90;;;;;;;;;;4877598;29;20033;-69
2023/11/17 00:59:20;;;;;;;1999.90;999.90;;;;;;;;;;4876766;29;20079;-67
2023/11/17 01:01:46;;;;;;;1999.90;999.90;;;;;;;;;;4877497;29;20120;-70
2023/11/17 01:04:13;;;;;;;1999.90;999.90;;;;;;;;;;4877301;29;20461;-73
2023/11/17 01:06:39;;;;;;;1999.90;999.90;;;;;;;;;;4877414;29;20080;-68
2023/11/17 01:09:05;;;;;;;1999.90;999.90;;;;;;;;;;4877204;29;20161;-75
2023/11/17 01:11:31;;;;;;;1999.90;999.90;;;;;;;;;;4877718;29;20076;-68
2023/11/17 01:13:57;;;;;;;1999.90;999.90;;;;;;;;;;4877398;29;20063;-75
2023/11/17 01:16:23;;;;;;;1999.90;999.90;;;;;;;;;;4877555;29;20424;-69
2023/11/17 01:18:50;;;;;;;1999.90;999.90;;;;;;;;;;4877398;29;20029;-69
2023/11/17 01:21:16;;;;;;;1999.90;999.90;;;;;;;;;;4877316;29;20061;-74
2023/11/17 01:23:42;;;;;;;1999.90;999.90;;;;;;;;;;4877313;29;20033;-76
2023/11/17 01:26:08;;;;;;;1999.90;999.90;;;;;;;;;;4877189;29;20029;-69
2023/11/17 01:28:34;;;;;;;1999.90;999.90;;;;;;;;;;4877036;29;20037;-70
2023/11/17 01:31:00;;;;;;;1999.90;999.90;;;;;;;;;;4877206;29;20129;-68
2023/11/17 01:33:26;;;;;;;1999.90;999.90;;;;;;;;;;4877221;29;20029;-68
2023/11/17 01:35:52;;;;;;;1999.90;999.90;;;;;;;;;;4877493;29;20021;-72
2023/11/17 01:38:18;;;;;;;1999.90;999.90;;;;;;;;;;4877190;29;20103;-70
2023/11/17 01:40:45;;;;;;;1999.90;999.90;;;;;;;;;;4877379;29;20029;-75
2023/11/17 01:43:11;;;;;;;1999.90;999.90;;;;;;;;;;4877309;29;20045;-71
2023/11/17 01:45:42;;;;;;;1999.90;999.90;;;;;;;;;;4891009;29;20541;-78
2023/11/17 01:48:08;;;;;;;1999.90;999.90;;;;;;;;;;4877369;29;20433;-72
2023/11/17 01:50:35;;;;;;;1999.90;999.90;;;;;;;;;;4877078;29;20025;-75
2023/11/17 01:53:01;;;;;;;1999.90;999.90;;;;;;;;;;4877127;29;20021;-77
2023/11/17 01:55:27;;;;;;;1999.90;999.90;;;;;;;;;;4876925;29;20044;-69
2023/11/17 01:57:54;;;;;;;1999.90;999.90;;;;;;;;;;4877019;29;20055;-68
2023/11/17 02:00:21;;;;;;;1999.90;999.90;;;;;;;;;;4876929;29;20037;-67
2023/11/17 02:02:49;;;;;;;1999.90;999.90;;;;;;;;;;4876871;29;20089;-79
2023/11/17 02:05:20;;;;;;;1999.90;999.90;;;;;;;;;;4876847;29;20040;-73
2023/11/17 02:07:54;;;;;;;1999.90;999.90;;;;;;;;;;4876279;29;20029;-72
2023/11/17 02:10:47;;;;;;;1999.90;999.90;;;;;;;;;;4876692;29;20060;-68
2023/11/17 02:13:25;;;;;;;1999.90;999.90;;;;;;;;;;4865212;29;20098;-68
2023/11/17 02:15:51;;;;;;;1999.90;999.90;;;;;;;;;;4879860;29;20081;-77
2023/11/17 02:18:22;;;;;;;1999.90;999.90;;;;;;;;;;4879667;29;20488;-68
2023/11/17 02:20:52;;;;;;;1999.90;999.90;;;;;;;;;;4880253;29;20037;-69
2023/11/17 02:23:19;;;;;;;1999.90;999.90;;;;;;;;;;4880086;29;20048;-69
2023/11/17 02:25:59;;;;;;;1999.90;999.90;;;;;;;;;;4880032;29;20081;-69
2023/11/17 02:28:34;;;;;;;1999.90;999.90;;;;;;;;;;4879856;29;20393;-68
2023/11/17 02:31:14;;;;;;;1999.90;999.90;;;;;;;;;;4879554;29;20057;-68
2023/11/17 02:33:41;;;;;;;1999.90;999.90;;;;;;;;;;4880104;29;20028;-68
2023/11/17 02:36:16;;;;;;;1999.90;999.90;;;;;;;;;;4879841;29;20037;-77
2023/11/17 02:38:54;;;;;;;1999.90;999.90;;;;;;;;;;4880147;29;20037;-78
2023/11/17 02:41:29;;;;;;;1999.90;999.90;;;;;;;;;;4880004;29;20657;-68
2023/11/17 02:44:02;;;;;;;1999.90;999.90;;;;;;;;;;4879925;29;20041;-69
2023/11/17 02:46:32;;;;;;;1999.90;999.90;;;;;;;;;;4879796;29;20032;-69
2023/11/17 02:49:10;;;;;;;1999.90;999.90;;;;;;;;;;4879815;29;20029;-68
2023/11/17 02:51:44;;;;;;;1999.90;999.90;;;;;;;;;;4879747;29;20087;-72
2023/11/17 02:54:13;;;;;;;1999.90;999.90;;;;;;;;;;4880153;29;20025;-68
2023/11/17 02:56:39;;;;;;;1999.90;999.90;;;;;;;;;;4881864;29;20033;-75
2023/11/17 02:59:08;;;;;;;1999.90;999.90;;;;;;;;;;4881147;29;20092;-68
2023/11/17 03:01:38;;;;;;;1999.90;999.90;;;;;;;;;;4883336;29;20037;-68
2023/11/17 03:04:04;;;;;;;1999.90;999.90;;;;;;;;;;4880142;29;20029;-70
2023/11/17 03:06:31;;;;;;;1999.90;999.90;;;;;;;;;;4879759;29;20497;-80
2023/11/17 03:08:58;;;;;;;1999.90;999.90;;;;;;;;;;4879581;29;20025;-69
2023/11/17 03:11:24;;;;;;;1999.90;999.90;;;;;;;;;;4879228;29;20073;-74
2023/11/17 03:13:50;;;;;;;1999.90;999.90;;;;;;;;;;4879448;29;20032;-67
2023/11/17 03:16:23;;;;;;;1999.90;999.90;;;;;;;;;;4879159;29;20493;-67
2023/11/17 03:18:52;;;;;;;1999.90;999.90;;;;;;;;;;4879161;29;20108;-68
2023/11/17 03:21:18;;;;;;;1999.90;999.90;;;;;;;;;;4879202;29;20029;-68
2023/11/17 03:23:44;;;;;;;1999.90;999.90;;;;;;;;;;4878230;29;20044;-68
2023/11/17 03:26:11;;;;;;;1999.90;999.90;;;;;;;;;;4879088;29;20028;-76
2023/11/17 03:28:37;;;;;;;1999.90;999.90;;;;;;;;;;4878977;29;20427;-68
2023/11/17 03:31:04;;;;;;;1999.90;999.90;;;;;;;;;;4878611;29;20057;-68
2023/11/17 03:33:30;;;;;;;1999.90;999.90;;;;;;;;;;4879073;29;20381;-72
2023/11/17 03:35:57;;;;;;;1999.90;999.90;;;;;;;;;;4879153;29;20433;-69
2023/11/17 03:38:23;;;;;;;1999.90;999.90;;;;;;;;;;4878759;29;20029;-73
2023/11/17 03:40:49;;;;;;;1999.90;999.90;;;;;;;;;;4878908;29;20232;-69
2023/11/17 03:43:17;;;;;;;1999.90;999.90;;;;;;;;;;4878731;29;20036;-69
2023/11/17 03:45:48;;;;;;;1999.90;999.90;;;;;;;;;;4879008;29;20047;-70
2023/11/17 03:48:14;;;;;;;1999.90;999.90;;;;;;;;;;4879162;29;20021;-70
2023/11/17 03:50:42;;;;;;;1999.90;999.90;;;;;;;;;;4878345;29;20032;-74
2023/11/17 03:53:08;;;;;;;1999.90;999.90;;;;;;;;;;4878474;29;20025;-69
2023/11/17 03:55:34;;;;;;;1999.90;999.90;;;;;;;;;;4878571;29;20045;-69
2023/11/17 03:58:00;;;;;;;1999.90;999.90;;;;;;;;;;4878588;29;20029;-77
2023/11/17 04:00:28;;;;;;;1999.90;999.90;;;;;;;;;;4878552;29;20064;-79
2023/11/17 04:02:54;;;;;;;1999.90;999.90;;;;;;;;;;4878588;29;20029;-69
2023/11/17 04:05:20;;;;;;;1999.90;999.90;;;;;;;;;;4878703;29;20111;-69
2023/11/17 04:07:49;;;;;;;1999.90;999.90;;;;;;;;;;4878523;29;20029;-69
2023/11/17 04:10:18;;;;;;;1999.90;999.90;;;;;;;;;;4878481;29;20057;-71
2023/11/17 04:12:45;;;;;;;1999.90;999.90;;;;;;;;;;4878243;29;20052;-71
2023/11/17 04:15:11;;;;;;;1999.90;999.90;;;;;;;;;;4878460;29;20025;-79
2023/11/17 04:17:37;;;;;;;1999.90;999.90;;;;;;;;;;4878164;29;20060;-70
2023/11/17 04:20:03;;;;;;;1999.90;999.90;;;;;;;;;;4878117;29;20568;-70
2023/11/17 04:22:29;;;;;;;1999.90;999.90;;;;;;;;;;4878089;29;20041;-69
2023/11/17 04:24:56;;;;;;;1999.90;999.90;;;;;;;;;;4877978;29;20029;-69
2023/11/17 04:27:22;;;;;;;1999.90;999.90;;;;;;;;;;4878304;29;20033;-69
2023/11/17 04:29:48;;;;;;;1999.90;999.90;;;;;;;;;;4877550;29;20511;-68
2023/11/17 04:32:14;;;;;;;1999.90;999.90;;;;;;;;;;4877911;29;20037;-68
2023/11/17 04:34:40;;;;;;;1999.90;999.90;;;;;;;;;;4878134;29;20665;-79
2023/11/17 04:37:08;;;;;;;1999.90;999.90;;;;;;;;;;4877891;29;20077;-69
2023/11/17 04:39:34;;;;;;;1999.90;999.90;;;;;;;;;;4878074;29;20359;-71
2023/11/17 04:42:00;;;;;;;1999.90;999.90;;;;;;;;;;4877655;29;20061;-68
2023/11/17 04:44:26;;;;;;;1999.90;999.90;;;;;;;;;;4878422;29;20081;-69
2023/11/17 04:46:54;;;;;;;1999.90;999.90;;;;;;;;;;4878242;29;20040;-73
2023/11/17 04:49:20;;;;;;;1999.90;999.90;;;;;;;;;;4878259;29;20029;-79
2023/11/17 04:51:46;;;;;;;1999.90;999.90;;;;;;;;;;4877649;29;20040;-69
2023/11/17 04:54:14;;;;;;;1999.90;999.90;;;;;;;;;;4877493;29;20482;-68
2023/11/17 04:56:41;;;;;;;1999.90;999.90;;;;;;;;;;4877959;29;20025;-70
2023/11/17 04:59:07;;;;;;;1999.90;999.90;;;;;;;;;;4875919;29;20045;-69
2023/11/17 05:01:34;;;;;;;1999.90;999.90;;;;;;;;;;4877154;29;20036;-70
2023/11/17 05:04:02;;;;;;;1999.90;999.90;;;;;;;;;;4877483;29;20056;-68
2023/11/17 05:06:28;;;;;;;1999.90;999.90;;;;;;;;;;4877510;29;20104;-76
2023/11/17 05:08:54;;;;;;;1999.90;999.90;;;;;;;;;;4877439;29;20064;-69
2023/11/17 05:11:23;;;;;;;1999.90;999.90;;;;;;;;;;4877350;29;20025;-70
2023/11/17 05:13:50;;;;;;;1999.90;999.90;;;;;;;;;;4877519;29;20053;-69
2023/11/17 05:16:16;;;;;;;1999.90;999.90;;;;;;;;;;4877312;29;20048;-68
2023/11/17 05:18:47;;;;;;;1999.90;999.90;;;;;;;;;;4878034;29;20060;-79
2023/11/17 05:21:14;;;;;;;1999.90;999.90;;;;;;;;;;4877275;29;20039;-78
2023/11/17 05:23:40;;;;;;;1999.90;999.90;;;;;;;;;;4877346;29;20132;-78
2023/11/17 05:26:06;;;;;;;1999.90;999.90;;;;;;;;;;4877108;29;20541;-79
2023/11/17 05:28:33;;;;;;;1999.90;999.90;;;;;;;;;;4877380;29;20033;-77
2023/11/17 05:31:02;;;;;;;1999.90;999.90;;;;;;;;;;4877163;29;20053;-79
2023/11/17 05:33:29;;;;;;;1999.90;999.90;;;;;;;;;;4877113;29;20048;-77
2023/11/17 05:35:55;;;;;;;1999.90;999.90;;;;;;;;;;4877119;29;20037;-68
2023/11/17 05:38:21;;;;;;;1999.90;999.90;;;;;;;;;;4877389;29;20029;-78
2023/11/17 05:40:47;;;;;;;1999.90;999.90;;;;;;;;;;4877393;29;20022;-68
2023/11/17 05:43:14;;;;;;;1999.90;999.90;;;;;;;;;;4877081;29;20047;-68
2023/11/17 05:45:40;;;;;;;1999.90;999.90;;;;;;;;;;4877922;29;20104;-70
2023/11/17 05:48:06;;;;;;;1999.90;999.90;;;;;;;;;;4881491;29;20057;-69
2023/11/17 05:50:32;;;;;;;1999.90;999.90;;;;;;;;;;4883111;29;20029;-68
2023/11/17 05:52:58;;;;;;;1999.90;999.90;;;;;;;;;;4883457;29;20036;-81
2023/11/17 05:55:24;;;;;;;1999.90;999.90;;;;;;;;;;4883110;29;20029;-71
2023/11/17 05:57:50;;;;;;;1999.90;999.90;;;;;;;;;;4881238;29;20025;-77
2023/11/17 06:00:19;;;;;;;1999.90;999.90;;;;;;;;;;4880477;29;20037;-77
2023/11/17 06:02:46;;;;;;;1999.90;999.90;;;;;;;;;;4881194;29;20109;-72
2023/11/17 06:05:15;;;;;;;1999.90;999.90;;;;;;;;;;4881239;29;20122;-72
2023/11/17 06:07:41;;;;;;;1999.90;999.90;;;;;;;;;;4880486;29;20385;-69
2023/11/17 06:10:08;;;;;;;1999.90;999.90;;;;;;;;;;4880793;29;20021;-73
2023/11/17 06:12:34;;;;;;;1999.90;999.90;;;;;;;;;;4880326;29;20153;-78
2023/11/17 06:15:01;;;;;;;1999.90;999.90;;;;;;;;;;4880543;29;20485;-69
2023/11/17 06:17:27;;;;;;;1999.90;999.90;;;;;;;;;;4880385;29;20033;-69
2023/11/17 06:19:54;;;;;;;1999.90;999.90;;;;;;;;;;4880315;29;20033;-69
2023/11/17 06:22:21;;;;;;;1999.90;999.90;;;;;;;;;;4880346;29;20502;-79
2023/11/17 06:24:47;;;;;;;1999.90;999.90;;;;;;;;;;4880134;29;20032;-70
2023/11/17 06:27:13;;;;;;;1999.90;999.90;;;;;;;;;;4879944;29;20041;-75
2023/11/17 06:29:39;;;;;;;1999.90;999.90;;;;;;;;;;4879849;29;20124;-71
2023/11/17 06:32:06;;;;;;;1999.90;999.90;;;;;;;;;;4879810;29;20037;-68
2023/11/17 06:34:32;;;;;;;1999.90;999.90;;;;;;;;;;4880125;29;20040;-69
2023/11/17 06:36:58;;;;;;;1999.90;999.90;;;;;;;;;;4879902;29;20032;-72
2023/11/17 06:39:24;;;;;;;1999.90;999.90;;;;;;;;;;4879938;29;20079;-76
2023/11/17 06:41:51;;;;;;;1999.90;999.90;;;;;;;;;;4880031;29;20389;-71
2023/11/17 06:44:21;;;;;;;1999.90;999.90;;;;;;;;;;4879921;29;20033;-69
2023/11/17 06:46:48;;;;;;;1999.90;999.90;;;;;;;;;;4879734;29;20061;-71
2023/11/17 06:49:16;;;;;;;1999.90;999.90;;;;;;;;;;4879784;29;20077;-76
2023/11/17 06:51:43;;;;;;;1999.90;999.90;;;;;;;;;;4879466;29;20333;-77
2023/11/17 06:54:13;;;;;;;1999.90;999.90;;;;;;;;;;4879655;29;20021;-75
2023/11/17 06:56:46;;;;;;;1999.90;999.90;;;;;;;;;;4879262;29;20048;-78
2023/11/17 06:59:16;;;;;;;1999.90;999.90;;;;;;;;;;4876859;29;20036;-77
2023/11/17 07:01:43;;;;;;;1999.90;999.90;;;;;;;;;;4879000;29;20037;-75
2023/11/17 07:04:12;;;;;;;1999.90;999.90;;;;;;;;;;4879434;29;20025;-78
2023/11/17 07:06:44;;;;;;;1999.90;999.90;;;;;;;;;;4879584;29;20036;-78
2023/11/17 07:09:17;;;;;;;1999.90;999.90;;;;;;;;;;4879565;29;20060;-76
2023/11/17 07:11:44;;;;;;;1999.90;999.90;;;;;;;;;;4879281;29;20025;-80
2023/11/17 07:14:11;;;;;;;1999.90;999.90;;;;;;;;;;4879429;29;20021;-77
2023/11/17 07:16:37;;;;;;;1999.90;999.90;;;;;;;;;;4879496;29;20459;-71
2023/11/17 07:19:08;;;;;;;1999.90;999.90;;;;;;;;;;4879399;29;20025;-71
2023/11/17 07:21:35;;;;;;;1999.90;999.90;;;;;;;;;;4877777;29;20056;-66
2023/11/17 07:24:05;;;;;;;1999.90;999.90;;;;;;;;;;4879056;29;20033;-66
2023/11/17 07:26:31;;;;;;;1999.90;999.90;;;;;;;;;;4878572;29;20025;-72
2023/11/17 07:28:57;;;;;;;1999.90;999.90;;;;;;;;;;4879899;29;20040;-70
2023/11/17 07:31:23;;;;;;;1999.90;999.90;;;;;;;;;;4897786;29;20047;-79
2023/11/17 07:33:49;;;;;;;1999.90;999.90;;;;;;;;;;4897705;29;20331;-76
2023/11/17 07:36:15;;;;;;;1999.90;999.90;;;;;;;;;;4897420;29;20434;-68
2023/11/17 07:38:42;;;;;;;1999.90;999.90;;;;;;;;;;4881577;29;20029;-72
2023/11/17 07:41:10;;;;;;;1999.90;999.90;;;;;;;;;;4878571;29;20093;-77
2023/11/17 07:43:36;;;;;;;1999.90;999.90;;;;;;;;;;4878513;29;20041;-80
2023/11/17 07:46:02;;;;;;;1999.90;999.90;;;;;;;;;;4878816;29;20036;-73
2023/11/17 07:48:32;;;;;;;1999.90;999.90;;;;;;;;;;4879509;29;20029;-67
2023/11/17 07:50:58;;;;;;;1999.90;999.90;;;;;;;;;;4868167;29;20492;-67
2023/11/17 07:53:24;;;;;;;1999.90;999.90;;;;;;;;;;4870403;29;20027;-67
2023/11/17 07:55:54;;;;;;;1999.90;999.90;;;;;;;;;;4862759;29;20040;-76
2023/11/17 07:58:20;;;;;;;1999.90;999.90;;;;;;;;;;4869537;29;20049;-69
2023/11/17 08:00:50;;;;;;;1999.90;999.90;;;;;;;;;;4869927;29;20038;-78
2023/11/17 08:03:16;;;;;;;1999.90;999.90;;;;;;;;;;4877633;29;20036;-69
